Time;durP1;ratioP1;P1;durP2;ratioP2;P2;SDS_P1;SDS_P2;PMS_P1;PMS_P2;Temp;Humidity;BMP_temperature;BMP_pressure;BME280_temperature;BME280_humidity;BME280_pressure;Samples;Min_cycle;Max_cycle;Signal;HPM_P1;HPM_P2
2021/01/17 00:00:49;;;;;;;13.95;6.88;;;-2.30;94.90;;;;;;5014265;28;20080;-66
2021/01/17 00:03:16;;;;;;;13.30;7.03;;;-2.40;94.60;;;;;;5013934;28;20088;-66
2021/01/17 00:05:43;;;;;;;11.68;6.60;;;-2.40;94.30;;;;;;5014106;28;20389;-66
2021/01/17 00:08:12;;;;;;;16.27;8.13;;;-2.40;94.80;;;;;;5014190;28;20034;-66
2021/01/17 00:10:39;;;;;;;13.77;6.70;;;-2.40;94.70;;;;;;5014013;28;20034;-66
2021/01/17 00:13:06;;;;;;;12.98;6.43;;;-2.40;94.30;;;;;;5013823;28;20076;-66
2021/01/17 00:15:32;;;;;;;14.52;6.50;;;-2.40;94.40;;;;;;5014114;28;20091;-66
2021/01/17 00:17:57;;;;;;;14.18;7.05;;;-2.50;94.70;;;;;;5012791;28;20120;-66
2021/01/17 00:20:24;;;;;;;12.57;6.43;;;-2.40;94.10;;;;;;5013904;28;20141;-66
2021/01/17 00:22:53;;;;;;;13.52;6.63;;;-2.50;94.70;;;;;;5012513;28;20109;-66
2021/01/17 00:25:20;;;;;;;13.18;7.05;;;-2.50;94.50;;;;;;5013820;28;20022;-66
2021/01/17 00:27:50;;;;;;;13.60;6.88;;;-2.50;94.80;;;;;;5013982;28;20026;-66
2021/01/17 00:30:19;;;;;;;16.33;7.55;;;-2.50;94.40;;;;;;5014287;28;20014;-66
2021/01/17 00:32:49;;;;;;;37.80;17.27;;;-2.40;94.20;;;;;;5013742;28;20026;-66
2021/01/17 00:35:15;;;;;;;19.00;9.02;;;-2.30;92.90;;;;;;5014283;28;20393;-66
2021/01/17 00:37:40;;;;;;;15.18;6.53;;;-2.10;92.80;;;;;;5013659;28;20057;-66
2021/01/17 00:40:06;;;;;;;12.00;6.18;;;-2.10;93.30;;;;;;5012396;28;20080;-66
2021/01/17 00:42:32;;;;;;;11.68;6.40;;;-1.90;92.20;;;;;;5013336;28;20030;-66
2021/01/17 00:44:57;;;;;;;12.57;6.03;;;-1.90;92.30;;;;;;5013576;28;20452;-66
2021/01/17 00:47:23;;;;;;;13.10;6.40;;;-2.00;93.10;;;;;;5013431;28;20389;-66
2021/01/17 00:49:50;;;;;;;12.13;5.78;;;-1.90;93.10;;;;;;5013265;28;20108;-65
2021/01/17 00:52:19;;;;;;;12.18;5.88;;;-1.70;92.50;;;;;;5013068;28;20103;-65
2021/01/17 00:54:46;;;;;;;14.00;6.07;;;-1.80;92.90;;;;;;5013348;28;20022;-66
2021/01/17 00:57:12;;;;;;;12.63;6.13;;;-2.00;93.30;;;;;;5012800;28;20599;-66
2021/01/17 00:59:38;;;;;;;17.02;7.13;;;-2.10;93.70;;;;;;5013032;28;20029;-66
2021/01/17 01:02:05;;;;;;;16.10;8.23;;;-2.40;94.30;;;;;;5012813;28;20033;-66
2021/01/17 01:04:31;;;;;;;15.40;7.68;;;-2.50;95.10;;;;;;5012627;28;20056;-66
2021/01/17 01:06:57;;;;;;;13.73;6.90;;;-2.70;95.40;;;;;;5012997;28;20049;-66
2021/01/17 01:09:23;;;;;;;15.35;7.05;;;-2.80;95.80;;;;;;5012812;28;20033;-66
2021/01/17 01:11:48;;;;;;;16.70;7.38;;;-2.90;95.90;;;;;;5012935;28;20376;-66
2021/01/17 01:14:14;;;;;;;15.70;7.93;;;-2.90;96.20;;;;;;5012958;28;20097;-66
2021/01/17 01:16:40;;;;;;;17.77;7.20;;;-2.70;95.50;;;;;;5012804;28;20551;-65
2021/01/17 01:19:05;;;;;;;14.43;6.47;;;-2.60;95.00;;;;;;5012703;28;20061;-66
2021/01/17 01:21:33;;;;;;;15.00;6.90;;;-2.60;94.70;;;;;;5012705;28;20068;-66
2021/01/17 01:23:58;;;;;;;13.43;6.57;;;-2.70;94.60;;;;;;5012368;28;20080;-66
2021/01/17 01:26:25;;;;;;;15.98;6.50;;;-2.70;94.60;;;;;;5012613;28;20029;-66
2021/01/17 01:28:53;;;;;;;12.63;6.40;;;-2.80;94.70;;;;;;5012532;28;20025;-66
2021/01/17 01:31:23;;;;;;;18.70;6.88;;;-2.90;95.10;;;;;;5012545;28;20025;-65
2021/01/17 01:33:49;;;;;;;;;;;-2.90;94.90;;;;;;5013153;28;20080;-66
2021/01/17 01:36:22;;;;;;;13.73;6.25;;;-3.00;95.10;;;;;;5012412;28;19905;-65
2021/01/17 01:38:48;;;;;;;11.57;5.95;;;-3.20;95.40;;;;;;5012838;28;20053;-65
2021/01/17 01:41:14;;;;;;;11.55;6.13;;;-3.40;95.80;;;;;;5012455;28;20053;-65
2021/01/17 01:43:40;;;;;;;14.98;6.07;;;-3.60;96.20;;;;;;5012192;28;20033;-65
2021/01/17 01:46:09;;;;;;;14.20;6.45;;;-3.80;96.40;;;;;;5012227;28;20546;-66
2021/01/17 01:48:35;;;;;;;15.57;6.90;;;-4.00;96.30;;;;;;5011996;28;20436;-66
2021/01/17 01:51:02;;;;;;;13.55;5.80;;;-4.20;96.90;;;;;;5012281;28;20022;-65
2021/01/17 01:53:29;;;;;;;12.38;6.35;;;-4.00;97.20;;;;;;5011968;28;20022;-65
2021/01/17 01:55:59;;;;;;;13.93;5.55;;;-4.10;96.30;;;;;;5012150;28;20029;-65
2021/01/17 01:58:27;;;;;;;11.90;5.93;;;-4.20;95.90;;;;;;5011541;28;20030;-65
2021/01/17 02:00:53;;;;;;;11.00;5.68;;;-4.20;95.80;;;;;;5011979;28;20030;-65
2021/01/17 02:03:19;;;;;;;12.75;6.40;;;-4.30;95.60;;;;;;5010308;28;20037;-66
2021/01/17 02:05:44;;;;;;;12.88;5.40;;;-4.40;95.70;;;;;;5011872;28;20037;-65
2021/01/17 02:08:31;;;;;;;13.88;6.45;;;-4.50;95.90;;;;;;5011930;28;20079;-65
2021/01/17 02:11:22;;;;;;;15.27;5.57;;;-4.50;96.00;;;;;;5011848;28;20087;-66
2021/01/17 02:13:56;;;;;;;15.82;6.55;;;-4.70;95.90;;;;;;5007712;28;20091;-65
2021/01/17 02:16:22;;;;;;;14.93;6.55;;;-4.80;96.20;;;;;;5011113;28;20046;-66
2021/01/17 02:18:52;;;;;;;13.82;6.38;;;-4.90;96.70;;;;;;5011894;28;20437;-65
2021/01/17 02:21:18;;;;;;;12.25;5.70;;;-4.90;96.60;;;;;;5012013;28;20156;-65
2021/01/17 02:23:52;;;;;;;18.23;5.97;;;-4.80;96.30;;;;;;5011441;28;20034;-65
2021/01/17 02:26:18;;;;;;;13.48;6.03;;;-4.90;96.80;;;;;;5011529;28;20048;-65
2021/01/17 02:28:47;;;;;;;12.57;5.45;;;-5.00;97.00;;;;;;5010419;28;20030;-65
2021/01/17 02:31:14;;;;;;;13.85;5.93;;;-5.20;96.30;;;;;;5011601;28;20107;-65
2021/01/17 02:33:41;;;;;;;14.10;6.38;;;-5.30;96.90;;;;;;5011267;28;20033;-65
2021/01/17 02:36:29;;;;;;;12.73;5.80;;;-5.30;96.90;;;;;;5011849;28;20030;-66
2021/01/17 02:39:13;;;;;;;12.48;5.68;;;-5.50;96.10;;;;;;5011810;28;20032;-65
2021/01/17 02:41:58;;;;;;;12.63;5.75;;;-5.60;96.40;;;;;;5011367;28;20032;-65
2021/01/17 02:44:32;;;;;;;14.23;5.72;;;-5.70;96.50;;;;;;5010055;28;20025;-66
2021/01/17 02:46:58;;;;;;;13.30;6.22;;;-5.80;96.20;;;;;;5011169;28;20121;-65
2021/01/17 02:49:24;;;;;;;15.23;6.38;;;-5.90;96.60;;;;;;5011242;28;20385;-65
2021/01/17 02:51:51;;;;;;;13.98;5.82;;;-6.00;96.60;;;;;;5010994;28;20018;-65
2021/01/17 02:54:38;;;;;;;16.27;6.85;;;-5.90;97.10;;;;;;5011224;28;20030;-66
2021/01/17 02:57:09;;;;;;;15.20;6.22;;;-6.00;96.30;;;;;;5011646;28;20034;-65
2021/01/17 02:59:53;;;;;;;14.32;6.20;;;-6.10;96.20;;;;;;5009750;28;20037;-66
2021/01/17 03:02:25;;;;;;;15.27;6.60;;;-6.20;96.30;;;;;;5010876;28;20484;-65
2021/01/17 03:04:56;;;;;;;14.15;6.35;;;-6.20;96.80;;;;;;5011061;28;20065;-65
2021/01/17 03:07:24;;;;;;;14.43;6.45;;;-6.20;97.00;;;;;;5011157;28;20026;-65
2021/01/17 03:09:50;;;;;;;13.20;6.10;;;-6.30;96.80;;;;;;5010864;28;20041;-66
2021/01/17 03:12:15;;;;;;;15.40;6.70;;;-6.40;96.20;;;;;;5010798;28;20030;-65
2021/01/17 03:14:42;;;;;;;15.48;6.47;;;-6.20;98.30;;;;;;5009741;28;20022;-65
2021/01/17 03:17:08;;;;;;;13.82;6.30;;;-6.10;97.30;;;;;;5010950;28;20109;-65
2021/01/17 03:19:34;;;;;;;16.27;6.68;;;-6.20;97.20;;;;;;5010955;28;20104;-66
2021/01/17 03:22:00;;;;;;;15.50;5.82;;;-6.30;97.10;;;;;;5010825;28;20532;-65
2021/01/17 03:24:26;;;;;;;12.00;5.20;;;-6.40;97.00;;;;;;5010978;28;20472;-65
2021/01/17 03:26:52;;;;;;;14.10;5.72;;;-6.50;97.20;;;;;;5010872;28;20038;-65
2021/01/17 03:29:18;;;;;;;16.10;5.90;;;-6.60;97.30;;;;;;5014078;28;20026;-65
2021/01/17 03:31:48;;;;;;;13.65;5.93;;;-6.60;97.10;;;;;;5014583;28;20026;-65
2021/01/17 03:34:13;;;;;;;14.02;6.80;;;-6.70;97.00;;;;;;5013691;28;20080;-65
2021/01/17 03:36:39;;;;;;;17.13;6.78;;;-6.70;96.80;;;;;;5014667;28;20038;-65
2021/01/17 03:39:05;;;;;;;16.00;6.05;;;-6.60;97.70;;;;;;5014622;28;20489;-65
2021/01/17 03:41:31;;;;;;;14.95;6.07;;;-6.70;96.90;;;;;;5014782;28;20030;-65
2021/01/17 03:43:56;;;;;;;13.88;6.10;;;-6.60;97.10;;;;;;5014359;28;20034;-65
2021/01/17 03:46:22;;;;;;;14.52;7.10;;;-6.70;97.40;;;;;;5014462;28;20083;-65
2021/01/17 03:48:49;;;;;;;14.65;6.65;;;-6.70;97.10;;;;;;5014302;28;20035;-65
2021/01/17 03:51:15;;;;;;;11.73;5.90;;;-6.90;96.70;;;;;;5014481;28;20021;-65
2021/01/17 03:53:40;;;;;;;16.30;6.47;;;-6.90;96.70;;;;;;5014202;28;20029;-65
2021/01/17 03:56:06;;;;;;;13.15;6.30;;;-6.90;96.70;;;;;;5014368;28;20026;-65
2021/01/17 03:58:31;;;;;;;14.48;6.05;;;-7.00;96.60;;;;;;5014231;28;20103;-65
2021/01/17 04:00:57;;;;;;;15.02;6.45;;;-7.10;96.20;;;;;;5014364;28;20206;-65
2021/01/17 04:03:22;;;;;;;14.27;5.70;;;-7.00;97.00;;;;;;5013981;28;20041;-65
2021/01/17 04:05:48;;;;;;;15.90;6.95;;;-7.00;96.90;;;;;;5014151;28;20026;-65
2021/01/17 04:08:13;;;;;;;15.10;6.60;;;-7.00;96.90;;;;;;5014149;28;20527;-65
2021/01/17 04:10:39;;;;;;;15.70;6.82;;;-7.10;97.20;;;;;;5012691;28;20346;-65
2021/01/17 04:13:04;;;;;;;14.15;5.82;;;-7.10;96.90;;;;;;5013850;28;20033;-65
2021/01/17 04:15:30;;;;;;;14.68;5.97;;;-7.10;96.70;;;;;;5013943;28;20054;-65
2021/01/17 04:17:55;;;;;;;19.40;6.40;;;-7.10;96.90;;;;;;5013910;28;20117;-65
2021/01/17 04:20:21;;;;;;;15.05;6.32;;;-7.10;97.50;;;;;;5013893;28;20030;-65
2021/01/17 04:22:47;;;;;;;16.73;7.13;;;-7.10;98.00;;;;;;5013731;28;20065;-65
2021/01/17 04:25:12;;;;;;;13.57;6.07;;;-7.00;97.60;;;;;;5013780;28;20057;-65
2021/01/17 04:27:38;;;;;;;14.35;6.47;;;-7.00;97.10;;;;;;5012575;28;20050;-65
2021/01/17 04:30:04;;;;;;;13.02;5.50;;;-7.10;96.60;;;;;;5013672;28;20499;-65
2021/01/17 04:32:30;;;;;;;17.42;6.47;;;-7.30;96.40;;;;;;5013302;28;20022;-65
2021/01/17 04:34:56;;;;;;;12.70;5.22;;;-7.20;97.50;;;;;;5013659;28;20105;-65
2021/01/17 04:37:22;;;;;;;14.85;5.50;;;-7.30;97.20;;;;;;5013835;28;20427;-65
2021/01/17 04:39:49;;;;;;;14.52;6.35;;;-7.20;98.30;;;;;;5012878;28;20022;-65
2021/01/17 04:42:19;;;;;;;17.05;5.82;;;-7.40;97.40;;;;;;5013261;28;20097;-65
2021/01/17 04:44:52;;;;;;;15.90;6.32;;;-7.40;98.00;;;;;;5013397;28;20026;-65
2021/01/17 04:47:19;;;;;;;15.68;6.70;;;-7.50;97.60;;;;;;5012200;28;20391;-65
2021/01/17 04:49:53;;;;;;;14.60;6.43;;;-7.40;98.00;;;;;;5013802;28;20014;-65
2021/01/17 04:52:21;;;;;;;17.30;6.55;;;-7.50;98.50;;;;;;5013138;28;20489;-65
2021/01/17 04:54:47;;;;;;;18.42;7.13;;;-7.60;97.40;;;;;;5013435;28;20573;-65
2021/01/17 04:57:28;;;;;;;19.17;7.70;;;-7.70;98.70;;;;;;5013258;28;20477;-65
2021/01/17 05:00:06;;;;;;;18.88;7.22;;;-7.60;98.50;;;;;;5013304;28;20377;-65
2021/01/17 05:02:33;;;;;;;13.55;5.82;;;-7.70;97.20;;;;;;5013026;28;20480;-65
2021/01/17 05:05:21;;;;;;;15.20;7.15;;;-7.70;98.20;;;;;;5013323;28;20018;-65
2021/01/17 05:08:17;;;;;;;15.63;6.72;;;-7.70;98.10;;;;;;5013404;28;20099;-65
2021/01/17 05:10:46;;;;;;;12.77;6.35;;;-7.90;98.30;;;;;;5013216;28;20029;-65
2021/01/17 05:13:17;;;;;;;15.70;6.93;;;-7.90;98.70;;;;;;5012953;28;20025;-65
2021/01/17 05:15:44;;;;;;;16.08;6.85;;;-7.90;97.70;;;;;;5011937;28;20140;-65
2021/01/17 05:18:11;;;;;;;17.38;7.90;;;-7.90;97.90;;;;;;5011713;28;20503;-65
2021/01/17 05:20:37;;;;;;;17.67;6.57;;;-7.80;98.80;;;;;;5012920;28;20026;-65
2021/01/17 05:23:09;;;;;;;17.02;7.97;;;-7.80;98.40;;;;;;5012690;28;20021;-65
2021/01/17 05:25:35;;;;;;;15.57;6.85;;;-7.90;98.50;;;;;;5012615;28;20057;-65
2021/01/17 05:28:01;;;;;;;17.85;7.35;;;-8.00;98.10;;;;;;5012797;28;20060;-65
2021/01/17 05:30:26;;;;;;;18.80;7.57;;;-8.00;98.10;;;;;;5012417;28;20030;-65
2021/01/17 05:32:54;;;;;;;18.73;7.85;;;-8.00;98.40;;;;;;5012410;28;20028;-65
2021/01/17 05:35:21;;;;;;;17.50;6.97;;;-8.00;97.90;;;;;;5012680;28;20022;-65
2021/01/17 05:37:48;;;;;;;16.65;6.45;;;-8.20;98.20;;;;;;5012568;28;20100;-65
2021/01/17 05:40:14;;;;;;;16.65;6.97;;;-8.30;98.20;;;;;;5012524;28;20037;-65
2021/01/17 05:42:42;;;;;;;18.35;7.32;;;-8.30;98.00;;;;;;5012262;28;20026;-65
2021/01/17 05:45:24;;;;;;;18.35;7.93;;;-8.20;98.40;;;;;;5012391;28;20037;-65
2021/01/17 05:47:54;;;;;;;17.83;7.40;;;-8.30;98.20;;;;;;5012304;28;20088;-65
2021/01/17 05:50:20;;;;;;;15.50;6.70;;;-8.30;98.30;;;;;;5012330;28;20037;-65
2021/01/17 05:52:52;;;;;;;17.10;7.55;;;-8.30;98.10;;;;;;5011487;28;20026;-65
2021/01/17 05:55:18;;;;;;;19.52;8.35;;;-8.30;98.40;;;;;;5011194;28;20033;-65
2021/01/17 05:57:43;;;;;;;18.23;7.65;;;-8.50;98.20;;;;;;5012095;28;20033;-65
2021/01/17 06:00:09;;;;;;;18.17;7.50;;;-8.40;98.50;;;;;;5011967;28;20033;-65
2021/01/17 06:02:37;;;;;;;19.38;7.60;;;-8.30;98.40;;;;;;5011733;28;20492;-65
2021/01/17 06:05:03;;;;;;;22.55;9.02;;;-8.30;98.20;;;;;;5011918;28;20018;-65
2021/01/17 06:07:30;;;;;;;39.78;16.48;;;-8.30;97.90;;;;;;5011909;28;20389;-65
2021/01/17 06:10:22;;;;;;;36.75;13.38;;;-8.30;97.20;;;;;;5011773;28;20041;-65
2021/01/17 06:12:50;;;;;;;29.10;11.88;;;-8.50;98.00;;;;;;5011504;28;20026;-65
2021/01/17 06:15:15;;;;;;;27.30;12.43;;;-8.50;97.70;;;;;;5011853;28;20032;-65
2021/01/17 06:17:45;;;;;;;26.08;11.55;;;-8.50;97.70;;;;;;5011827;28;20045;-65
2021/01/17 06:20:19;;;;;;;25.67;10.55;;;-8.60;97.10;;;;;;5011805;28;20708;-65
2021/01/17 06:22:59;;;;;;;25.98;10.70;;;-8.60;98.00;;;;;;5011459;28;20057;-64
2021/01/17 06:25:30;;;;;;;23.83;9.18;;;-8.60;97.40;;;;;;5011632;28;20476;-65
2021/01/17 06:28:09;;;;;;;19.85;10.63;;;-8.60;97.00;;;;;;5010550;28;20478;-65
2021/01/17 06:30:35;;;;;;;21.25;9.73;;;-8.70;97.50;;;;;;5011505;28;20041;-65
2021/01/17 06:33:03;;;;;;;22.92;9.55;;;-8.70;97.20;;;;;;5011334;28;20026;-65
2021/01/17 06:35:38;;;;;;;20.83;8.25;;;-8.70;97.10;;;;;;5010098;28;20030;-65
2021/01/17 06:38:17;;;;;;;23.25;8.80;;;-8.70;97.20;;;;;;5011436;28;20033;-65
2021/01/17 06:40:48;;;;;;;26.60;10.25;;;-8.80;97.70;;;;;;5011424;28;20026;-65
2021/01/17 06:43:15;;;;;;;19.58;9.55;;;-8.90;97.00;;;;;;5011124;28;20030;-65
2021/01/17 06:45:42;;;;;;;22.95;11.43;;;-8.80;97.50;;;;;;5011146;28;20030;-64
2021/01/17 06:48:08;;;;;;;22.90;9.77;;;-8.90;97.50;;;;;;5011298;28;20084;-64
2021/01/17 06:50:35;;;;;;;25.08;9.60;;;-8.80;98.70;;;;;;5009948;28;20026;-65
2021/01/17 06:53:01;;;;;;;24.52;11.20;;;-8.90;97.60;;;;;;5011047;28;20093;-65
2021/01/17 06:55:27;;;;;;;25.70;12.57;;;-9.00;97.40;;;;;;5011220;28;20117;-65
2021/01/17 06:57:53;;;;;;;26.13;10.68;;;-9.00;97.10;;;;;;5011262;28;20026;-65
2021/01/17 07:00:19;;;;;;;27.95;11.93;;;-9.00;97.80;;;;;;5011032;28;20105;-65
2021/01/17 07:02:58;;;;;;;31.45;12.68;;;-8.90;97.90;;;;;;5016424;28;20049;-65
2021/01/17 07:05:32;;;;;;;23.60;10.10;;;-9.00;97.40;;;;;;5018680;28;20034;-65
2021/01/17 07:08:19;;;;;;;22.90;9.95;;;-9.00;97.40;;;;;;5014645;28;20026;-65
2021/01/17 07:10:49;;;;;;;25.40;9.68;;;-8.90;97.20;;;;;;5010937;28;20037;-65
2021/01/17 07:13:20;;;;;;;27.58;11.80;;;-8.90;97.30;;;;;;5010868;28;20017;-65
2021/01/17 07:15:49;;;;;;;27.20;11.95;;;-9.00;97.40;;;;;;5011111;28;20101;-65
2021/01/17 07:18:16;;;;;;;19.37;10.17;;;-9.00;97.50;;;;;;5011093;28;20018;-65
2021/01/17 07:20:47;;;;;;;27.23;13.32;;;-9.00;97.60;;;;;;5011032;28;20244;-65
2021/01/17 07:23:15;;;;;;;26.40;11.18;;;-9.00;97.70;;;;;;5010694;28;20026;-65
2021/01/17 07:25:43;;;;;;;25.73;10.70;;;-9.00;97.60;;;;;;5010941;28;20030;-65
2021/01/17 07:28:17;;;;;;;26.13;12.30;;;-8.90;97.60;;;;;;5010988;28;20026;-65
2021/01/17 07:30:52;;;;;;;27.20;11.77;;;-8.80;97.40;;;;;;5011080;28;20487;-65
2021/01/17 07:33:28;;;;;;;23.63;11.13;;;-8.70;97.50;;;;;;5009465;28;20026;-64
2021/01/17 07:35:57;;;;;;;21.50;9.77;;;-8.60;97.10;;;;;;5010966;28;20022;-65
2021/01/17 07:38:25;;;;;;;32.08;15.27;;;-8.60;97.10;;;;;;5010901;28;20026;-65
2021/01/17 07:41:05;;;;;;;31.73;15.05;;;-8.60;97.30;;;;;;5010891;28;20030;-65
2021/01/17 07:43:32;;;;;;;23.27;10.38;;;-8.50;97.20;;;;;;5010772;28;20032;-65
2021/01/17 07:46:03;;;;;;;24.02;11.02;;;-8.50;97.00;;;;;;5010782;28;20053;-65
2021/01/17 07:48:33;;;;;;;30.73;13.60;;;-8.40;97.10;;;;;;5010938;28;20022;-71
2021/01/17 07:51:01;;;;;;;28.35;14.52;;;-8.30;96.70;;;;;;5011117;28;20118;-74
2021/01/17 07:53:41;;;;;;;32.10;15.68;;;-8.40;96.80;;;;;;5010704;28;20534;-69
2021/01/17 07:56:25;;;;;;;27.88;12.93;;;-8.20;96.50;;;;;;5010824;28;20098;-66
2021/01/17 07:58:53;;;;;;;37.03;18.10;;;-8.10;96.40;;;;;;5010668;28;20030;-66
2021/01/17 08:01:30;;;;;;;29.15;11.23;;;-8.00;96.60;;;;;;5010581;28;20077;-66
2021/01/17 08:04:16;;;;;;;45.28;18.77;;;-7.90;96.60;;;;;;5010384;28;20026;-66
2021/01/17 08:06:42;;;;;;;27.92;13.32;;;-7.80;96.10;;;;;;5010081;28;20026;-75
2021/01/17 08:09:12;;;;;;;39.65;17.23;;;-7.70;95.80;;;;;;5028692;28;20041;-64
2021/01/17 08:11:45;;;;;;;28.65;12.35;;;-7.60;95.70;;;;;;5030133;28;20052;-65
2021/01/17 08:14:27;;;;;;;33.97;13.82;;;-7.50;95.80;;;;;;5030184;28;20017;-65
2021/01/17 08:17:18;;;;;;;30.80;13.55;;;-7.50;96.00;;;;;;5033828;28;20026;-71
2021/01/17 08:19:53;;;;;;;30.33;12.88;;;-7.40;95.70;;;;;;5033668;28;20017;-65
2021/01/17 08:22:21;;;;;;;37.75;15.38;;;-7.20;95.30;;;;;;5031878;28;20063;-66
2021/01/17 08:24:49;;;;;;;34.40;15.85;;;-7.10;95.40;;;;;;5033717;28;20380;-66
2021/01/17 08:27:35;;;;;;;33.72;16.67;;;-7.10;95.50;;;;;;5033519;28;20024;-65
2021/01/17 08:30:02;;;;;;;38.65;15.90;;;-7.00;95.40;;;;;;5033400;28;20498;-66
2021/01/17 08:32:35;;;;;;;51.78;23.02;;;-7.10;95.50;;;;;;5033219;28;20025;-66
2021/01/17 08:35:25;;;;;;;38.83;18.48;;;-7.10;95.80;;;;;;5033509;28;20022;-65
2021/01/17 08:37:54;;;;;;;68.70;33.10;;;-6.80;95.50;;;;;;5032036;28;20052;-65
2021/01/17 08:40:28;;;;;;;80.50;37.83;;;-6.90;95.30;;;;;;5033207;28;20075;-65
2021/01/17 08:42:55;;;;;;;93.85;37.92;;;-6.70;95.20;;;;;;5031666;28;20044;-65
2021/01/17 08:45:20;;;;;;;79.07;38.72;;;-6.60;95.10;;;;;;5033121;28;20037;-65
2021/01/17 08:47:50;;;;;;;51.83;26.58;;;-6.50;94.70;;;;;;5033121;28;20048;-65
2021/01/17 08:50:28;;;;;;;61.10;32.15;;;-6.40;94.40;;;;;;5033149;28;20097;-66
2021/01/17 08:53:09;;;;;;;66.30;33.60;;;-6.50;94.60;;;;;;5032478;28;20026;-64
2021/01/17 08:55:47;;;;;;;50.08;26.23;;;-6.40;94.30;;;;;;5032967;28;20030;-64
2021/01/17 08:58:28;;;;;;;43.10;23.48;;;-6.30;94.40;;;;;;5033105;28;20545;-64
2021/01/17 09:00:57;;;;;;;46.80;25.77;;;-6.50;94.90;;;;;;5033075;28;20083;-64
2021/01/17 09:03:35;;;;;;;44.88;24.20;;;-6.60;95.20;;;;;;5031222;28;20033;-63
2021/01/17 09:06:05;;;;;;;54.28;24.50;;;-6.60;95.60;;;;;;5032789;28;20056;-63
2021/01/17 09:08:32;;;;;;;42.80;22.08;;;-6.50;95.70;;;;;;5032547;28;20037;-64
2021/01/17 09:10:58;;;;;;;47.72;24.95;;;-6.30;95.50;;;;;;5032897;28;20072;-64
2021/01/17 09:13:29;;;;;;;53.20;27.08;;;-6.20;95.60;;;;;;5032541;28;20072;-64
2021/01/17 09:16:08;;;;;;;54.63;24.95;;;-6.20;95.80;;;;;;5032579;28;20025;-64
2021/01/17 09:18:38;;;;;;;47.13;24.38;;;-6.20;96.30;;;;;;5032669;28;20029;-64
2021/01/17 09:21:06;;;;;;;44.78;22.40;;;-6.00;96.40;;;;;;5032463;28;20108;-64
2021/01/17 09:23:39;;;;;;;43.08;21.08;;;-6.00;96.70;;;;;;5032285;28;20104;-64
2021/01/17 09:26:05;;;;;;;48.17;22.08;;;-5.80;96.80;;;;;;5032116;28;20033;-64
2021/01/17 09:28:31;;;;;;;40.72;20.13;;;-5.70;96.50;;;;;;5032377;28;20114;-64
2021/01/17 09:31:00;;;;;;;45.50;21.40;;;-5.60;96.60;;;;;;5032295;28;20523;-64
2021/01/17 09:33:28;;;;;;;49.38;24.63;;;-5.60;96.50;;;;;;5032154;28;20025;-64
2021/01/17 09:35:54;;;;;;;52.20;27.42;;;-5.40;96.50;;;;;;5032355;28;20022;-64
2021/01/17 09:38:23;;;;;;;41.25;21.45;;;-5.30;96.30;;;;;;5032199;28;20479;-67
2021/01/17 09:40:51;;;;;;;38.08;15.18;;;-5.20;95.90;;;;;;5032270;28;20025;-65
2021/01/17 09:43:17;;;;;;;41.33;16.65;;;-5.10;95.60;;;;;;5032091;28;20083;-65
2021/01/17 09:45:49;;;;;;;29.15;13.50;;;-4.90;95.20;;;;;;5032376;28;20088;-65
2021/01/17 09:48:21;;;;;;;31.10;14.52;;;-4.60;95.30;;;;;;5032540;28;20033;-65
2021/01/17 09:50:49;;;;;;;31.77;15.23;;;-4.40;94.60;;;;;;5031197;28;20040;-66
2021/01/17 09:53:15;;;;;;;35.03;15.93;;;-4.00;94.00;;;;;;5032145;28;20036;-65
2021/01/17 09:55:42;;;;;;;32.75;16.15;;;-3.80;93.40;;;;;;5032153;28;20030;-65
2021/01/17 09:58:10;;;;;;;29.30;13.90;;;-3.60;92.80;;;;;;5032050;28;20037;-65
2021/01/17 10:00:36;;;;;;;26.30;13.07;;;-3.70;92.80;;;;;;5031919;28;20099;-65
2021/01/17 10:03:08;;;;;;;31.17;13.98;;;-3.70;93.40;;;;;;5031610;28;20036;-65
2021/01/17 10:05:38;;;;;;;26.83;12.70;;;-3.60;93.30;;;;;;5031845;28;20025;-65
2021/01/17 10:08:08;;;;;;;26.65;13.25;;;-3.40;93.30;;;;;;5031798;28;20018;-65
2021/01/17 10:10:35;;;;;;;30.35;14.88;;;-3.40;93.00;;;;;;5031644;28;20060;-65
2021/01/17 10:13:02;;;;;;;28.52;14.25;;;-3.30;92.90;;;;;;5031449;28;20021;-65
2021/01/17 10:15:27;;;;;;;30.23;14.27;;;-3.20;93.00;;;;;;5031740;28;20037;-66
2021/01/17 10:17:53;;;;;;;29.20;14.32;;;-3.00;92.50;;;;;;5031606;28;20563;-66
2021/01/17 10:20:26;;;;;;;26.70;12.88;;;-2.80;92.10;;;;;;5031385;28;20109;-65
2021/01/17 10:23:08;;;;;;;30.10;15.07;;;-2.60;91.50;;;;;;5031505;28;20572;-65
2021/01/17 10:25:35;;;;;;;30.35;13.63;;;-2.60;91.80;;;;;;5031333;28;20669;-65
2021/01/17 10:28:02;;;;;;;28.45;13.63;;;-2.60;91.70;;;;;;5031252;28;20546;-65
2021/01/17 10:30:29;;;;;;;29.65;13.50;;;-2.50;91.90;;;;;;5031622;28;20037;-65
2021/01/17 10:33:10;;;;;;;24.83;13.05;;;-2.30;91.40;;;;;;5029503;28;20484;-65
2021/01/17 10:35:37;;;;;;;;;;;-2.10;91.30;;;;;;5030388;28;20399;-65
2021/01/17 10:38:05;;;;;;;25.85;12.38;;;-2.00;90.90;;;;;;5030667;28;20334;-65
2021/01/17 10:40:31;;;;;;;26.23;12.70;;;-1.90;91.40;;;;;;5031171;28;20415;-65
2021/01/17 10:43:00;;;;;;;25.15;12.95;;;-1.90;90.80;;;;;;5030892;28;20033;-65
2021/01/17 10:45:27;;;;;;;25.33;12.73;;;-1.60;90.60;;;;;;5031085;28;20068;-65
2021/01/17 10:48:11;;;;;;;24.23;12.65;;;-1.40;90.20;;;;;;5031078;28;20084;-65
2021/01/17 10:50:53;;;;;;;24.20;11.73;;;-1.50;90.20;;;;;;5031046;28;20025;-65
2021/01/17 10:53:35;;;;;;;28.45;12.52;;;-1.40;90.50;;;;;;5030896;28;20033;-66
2021/01/17 10:56:00;;;;;;;24.55;11.90;;;-1.50;90.70;;;;;;5031098;28;20108;-66
2021/01/17 10:58:32;;;;;;;21.70;11.50;;;-1.50;90.80;;;;;;5030911;28;20064;-66
2021/01/17 11:01:00;;;;;;;24.92;12.05;;;-1.40;90.70;;;;;;5030956;28;20391;-66
2021/01/17 11:03:29;;;;;;;25.48;12.82;;;-1.40;90.60;;;;;;5030679;28;20021;-66
2021/01/17 11:06:10;;;;;;;25.88;12.68;;;-1.40;90.60;;;;;;5030434;28;20029;-66
2021/01/17 11:08:50;;;;;;;25.92;13.38;;;-1.40;90.00;;;;;;5030799;28;20040;-66
2021/01/17 11:11:16;;;;;;;;;;;-1.40;90.50;;;;;;5031239;28;20029;-66
2021/01/17 11:13:42;;;;;;;25.33;12.50;;;-1.30;91.00;;;;;;5030202;28;19905;-66
2021/01/17 11:16:09;;;;;;;25.92;12.70;;;-1.20;90.80;;;;;;5029501;28;20030;-66
2021/01/17 11:18:36;;;;;;;25.80;12.52;;;-1.00;90.50;;;;;;5030612;28;20396;-66
2021/01/17 11:21:04;;;;;;;22.17;11.68;;;-1.10;90.20;;;;;;5029233;28;20037;-66
2021/01/17 11:23:31;;;;;;;26.10;12.43;;;-1.00;90.90;;;;;;5030408;28;20506;-66
2021/01/17 11:26:00;;;;;;;27.95;12.02;;;-0.90;90.60;;;;;;5030536;28;20029;-66
2021/01/17 11:28:28;;;;;;;26.73;12.68;;;-0.90;90.40;;;;;;5030667;28;20403;-66
2021/01/17 11:30:55;;;;;;;22.58;11.60;;;-0.80;90.40;;;;;;5030640;28;20358;-66
2021/01/17 11:33:27;;;;;;;22.52;11.18;;;0.00;88.40;;;;;;5030509;28;20442;-66
2021/01/17 11:35:59;;;;;;;24.98;11.38;;;0.70;82.80;;;;;;5030478;28;20096;-66
2021/01/17 11:38:59;;;;;;;21.55;11.02;;;1.50;77.10;;;;;;5029344;28;20026;-66
2021/01/17 11:41:41;;;;;;;22.25;11.02;;;1.80;73.10;;;;;;5030469;28;20025;-66
2021/01/17 11:44:13;;;;;;;22.88;12.50;;;1.90;71.60;;;;;;5030374;28;20029;-66
2021/01/17 11:46:39;;;;;;;21.88;11.95;;;1.80;71.60;;;;;;5028984;28;20029;-66
2021/01/17 11:49:06;;;;;;;24.10;10.65;;;2.10;71.90;;;;;;5030328;28;20396;-66
2021/01/17 11:51:32;;;;;;;20.63;10.73;;;2.20;70.00;;;;;;5034331;28;20033;-66
2021/01/17 11:54:16;;;;;;;28.45;13.07;;;2.00;69.20;;;;;;5033951;28;20040;-66
2021/01/17 11:56:42;;;;;;;21.83;10.98;;;1.70;70.30;;;;;;5034000;28;20038;-66
2021/01/17 11:59:08;;;;;;;24.20;11.93;;;1.30;73.60;;;;;;5034088;28;20095;-66
2021/01/17 12:01:35;;;;;;;21.13;11.05;;;1.70;73.90;;;;;;5034073;28;20085;-66
2021/01/17 12:04:03;;;;;;;24.23;12.60;;;2.20;70.00;;;;;;5033866;28;20032;-66
2021/01/17 12:06:29;;;;;;;25.55;14.43;;;2.00;69.60;;;;;;5032612;28;20028;-66
2021/01/17 12:09:02;;;;;;;24.67;12.48;;;1.90;70.80;;;;;;5033772;28;20079;-66
2021/01/17 12:11:29;;;;;;;24.45;12.05;;;1.60;72.70;;;;;;5033949;28;20033;-66
2021/01/17 12:13:55;;;;;;;20.23;11.52;;;2.10;71.60;;;;;;5033563;28;20390;-66
2021/01/17 12:16:35;;;;;;;24.67;13.05;;;2.30;69.80;;;;;;5033689;28;20037;-66
2021/01/17 12:19:02;;;;;;;25.20;12.55;;;2.40;68.10;;;;;;5033562;28;20017;-66
2021/01/17 12:21:29;;;;;;;22.33;11.30;;;2.50;68.60;;;;;;5033956;28;20030;-66
2021/01/17 12:23:55;;;;;;;21.15;10.07;;;2.60;67.10;;;;;;5033487;28;20424;-66
2021/01/17 12:26:22;;;;;;;20.60;10.25;;;2.10;68.60;;;;;;5033540;28;20036;-66
2021/01/17 12:28:47;;;;;;;23.42;10.65;;;1.70;71.20;;;;;;5033717;28;20025;-66
2021/01/17 12:31:14;;;;;;;19.85;10.38;;;1.60;71.50;;;;;;5030783;28;20460;-66
2021/01/17 12:33:40;;;;;;;22.73;12.20;;;1.30;73.10;;;;;;5032499;28;20456;-66
2021/01/17 12:36:10;;;;;;;21.52;11.07;;;0.80;76.30;;;;;;5033272;28;20068;-66
2021/01/17 12:38:36;;;;;;;25.20;12.32;;;0.90;76.60;;;;;;5033687;28;20033;-66
2021/01/17 12:41:06;;;;;;;25.27;11.73;;;0.80;77.30;;;;;;5033563;28;20034;-66
2021/01/17 12:43:32;;;;;;;21.63;11.85;;;0.60;78.40;;;;;;5033176;28;20021;-66
2021/01/17 12:45:57;;;;;;;25.85;11.70;;;0.60;80.10;;;;;;5033421;28;20086;-66